Airfield :
LOGIN :

Register | Disclaimer

   EN    FR    IT 

 










Legend :    VFR   Marginal VFR   IFR   Intensive IFR   Very Intensive IFR
Visi :
Ceiling :
>= 8 km
>= 3000ft
5 to 8 km
1000 to 3000 ft
1500m to 5 km
500 to 1000 ft
800 to 1500m
200 to 500 ft
< 800m
< 200 ft
Symbols :   Thunderstorms  Fog  Heavy snow  Heavy precipitations  Wind > 20 kt
SIGMETs :     Misc.  Thunderstorms  Icing  Turbulence  Mountain Waves  Volcanic Ashes






- Airport Elevation : 1161 ft
- IATA code : RJL


LELO - Logroño-Agoncillo

CURRENT METAR :
  • 301330Z 26003KT 210V300 9999 FEW035 14/04 Q1015

EXPIRED METARs :
  • 301300Z 25004KT 220V280 9999 FEW035 13/05 Q1015
  • 301230Z 24003KT 170V300 9999 FEW035 13/05 Q1015
  • 301200Z VRB03KT 9999 FEW035 12/05 Q1016
  • 301130Z 29004KT 240V320 CAVOK 12/05 Q1016
  • 301100Z 26004KT 210V290 CAVOK 11/06 Q1017
  • 301030Z 26004KT 200V280 CAVOK 10/06 Q1017

TAF TAF LELO
Valid from the 30 at 09:00 until the 01 at 09:00 UTC


300800Z 3009/0109 27006KT CAVOK TX13/3015Z TN01/0107Z



MET'MAP, your aeronautical weather chart ! - Copyright ORBIFLY December 2007 - Disclaimer

ORBIFLY MET'MAP TEAM :

Programming & Development : Alexandra Zaïnal
Original concept : Baudouin d'Aumeries
Technical & hardware support : Manuel Goepfert
Assistance : Marc-Olivier Méhu




SOURCES & CREDITS :

   NOAA